サンクトペテルブルク の空港の天気 - METARとTAF

プルコヴォ空港(サンクトペテルブルグ) ( ULLI / LED ) - ロシア サンクトペテルブルク
飛行場実況気象(Metar)
観測時間08/16 18:00 MSK (08/16 15:00 UTC)
風向・風速南東 3m/s
視程10km以上
天気現象
なし
気温22℃
湿度53%
気圧1019hPa
METARULLI 161500Z 13003MPS 100V160 CAVOK 22/12 Q1019 R28R/090060 NOSIG
過去の天気等 Google飛行場航空写真 Wunderground天気予報

過去48時間のMETAR

飛行場予報(TAF)
発表時間: 8/16 16:59 MSK (8/16 13:59 UTC)
予報対象時間: 16日18時 MSK ~ 17日18時 MSK
風向・風速北北西 3m/s
視程10km以上
全天の4割程度の雲 雲底高度 1220m
16日18時 MSK ~ 16日22時 MSK に一時的に
風向・風速不定 1m/s
16日22時 MSK ~ 16日24時 MSK に徐々に
風向・風速南 3m/s
視程3100m
天気現象地霧 もや
17日1時 MSK ~ 17日7時 MSK に一時的に
視程1200m
天気現象散在した霧 もや
全天の4割程度の雲 雲底高度 340m
17日8時 MSK ~ 17日10時 MSK に徐々に
視程10km以上
天気現象運行に影響にある天気現象が終了
17日12時 MSK ~ 17日18時 MSK に一時的に
風向・風速南南西 6m/s
全天の8割程度の雲 雲底高度 610m
TAF ULLI 161359Z 1615/1715 34003MPS 9999 SCT040
TEMPO 1615/1619 VRB01MPS
BECMG 1619/1621 17003MPS 3100 MIFG BR
TEMPO 1622/1704 1200 BCFG BR SCT011
BECMG 1705/1707 9999 NSW
TEMPO 1709/1715 21006MPS BKN020